Terminal Aerodrome Forecast
Issued by NWS

Home | Current Version | Previous Version | Text Only | Print | Product List | Glossary On
Versions: 1 2 3 4 5 6 7 8 9 10 11 12 13
036
FTUS44 KEPZ 301721
TAFDMN
TAF
KDMN 301721Z 3018/3118 26010KT P6SM SKC
     FM302000 25018G28KT P6SM SKC
     FM310300 25012KT P6SM FEW250
     FM311500 24021G31KT P6SM SCT050 BKN250=

USA.gov is the U.S. government's official web portal to all federal, state and local government web resources and services.